createdAt,value
2023-05-06T00:02:01.696Z,14.27
2023-05-06T00:04:31.782Z,13.45
2023-05-06T00:06:59.881Z,13.45
2023-05-06T00:09:27.942Z,11.73
2023-05-06T00:11:56.176Z,13.48
2023-05-06T00:14:25.753Z,13.02
2023-05-06T00:16:53.735Z,12.45
2023-05-06T00:19:22.354Z,12.60
2023-05-06T00:21:50.483Z,13.43
2023-05-06T00:24:20.433Z,15.32
2023-05-06T00:26:48.685Z,15.48
2023-05-06T00:29:17.014Z,14.50
2023-05-06T00:31:49.521Z,15.38
2023-05-06T00:34:17.603Z,14.40
2023-05-06T00:36:48.609Z,15.90
2023-05-06T00:39:16.916Z,15.10
2023-05-06T00:41:46.622Z,13.85
2023-05-06T00:44:15.049Z,14.60
2023-05-06T00:46:44.165Z,17.13
2023-05-06T00:49:14.414Z,15.07
2023-05-06T00:51:42.382Z,16.92
2023-05-06T00:54:16.195Z,15.98
2023-05-06T00:56:44.281Z,15.77
2023-05-06T00:59:14.321Z,18.15
2023-05-06T01:01:42.449Z,18.58
2023-05-06T01:04:10.589Z,19.70
2023-05-06T01:06:45.632Z,18.63
2023-05-06T01:09:22.256Z,15.65
2023-05-06T01:12:01.589Z,16.10
2023-05-06T01:14:34.193Z,16.90
2023-05-06T01:17:06.475Z,15.57
2023-05-06T01:19:42.960Z,13.60
2023-05-06T01:22:14.216Z,14.50
2023-05-06T01:24:45.286Z,15.57
2023-05-06T01:27:14.735Z,13.00
2023-05-06T01:29:46.483Z,13.50
2023-05-06T01:32:37.507Z,13.70
2023-05-06T01:35:15.687Z,15.60
2023-05-06T01:37:49.050Z,14.23
2023-05-06T01:40:19.492Z,14.75
2023-05-06T01:42:52.233Z,14.55
2023-05-06T01:45:21.932Z,15.18
2023-05-06T01:47:50.638Z,16.45
2023-05-06T01:50:18.992Z,15.80
2023-05-06T01:52:46.999Z,14.77
2023-05-06T01:55:18.145Z,14.77
2023-05-06T01:57:46.138Z,14.35
2023-05-06T02:00:14.822Z,14.18
2023-05-06T02:02:43.045Z,15.38
2023-05-06T02:05:11.678Z,14.60
2023-05-06T02:07:41.755Z,14.75
2023-05-06T02:10:10.202Z,16.92
2023-05-06T02:12:39.776Z,16.65
2023-05-06T02:15:09.088Z,15.40
2023-05-06T02:17:38.298Z,17.10
2023-05-06T02:20:19.261Z,15.57
2023-05-06T02:22:51.447Z,17.15
2023-05-06T02:25:19.744Z,15.65
2023-05-06T02:27:49.343Z,15.82
2023-05-06T02:30:17.395Z,17.45
2023-05-06T02:32:45.399Z,15.65
2023-05-06T02:35:13.575Z,16.58
2023-05-06T02:37:41.590Z,16.45
2023-05-06T02:40:10.605Z,17.48
2023-05-06T02:42:38.739Z,14.40
2023-05-06T02:45:09.605Z,16.67
2023-05-06T02:47:37.849Z,16.52
2023-05-06T02:50:06.727Z,16.63
2023-05-06T02:52:37.011Z,15.63
2023-05-06T02:55:05.389Z,14.98
2023-05-06T02:57:33.485Z,14.50
2023-05-06T03:00:03.115Z,16.67
2023-05-06T03:02:32.578Z,16.92
2023-05-06T03:05:00.909Z,17.67
2023-05-06T03:07:28.845Z,16.17
2023-05-06T03:09:57.134Z,16.73
2023-05-06T03:12:28.805Z,16.33
2023-05-06T03:14:56.787Z,17.88
2023-05-06T03:17:24.730Z,17.83
2023-05-06T03:19:54.100Z,16.27
2023-05-06T03:22:22.071Z,19.50
2023-05-06T03:24:53.612Z,17.63
2023-05-06T03:27:21.790Z,18.88
2023-05-06T03:29:49.842Z,17.77
2023-05-06T03:32:18.130Z,18.35
2023-05-06T03:34:46.101Z,19.10
2023-05-06T03:37:22.774Z,19.20
2023-05-06T03:39:50.739Z,18.88
2023-05-06T03:42:18.833Z,19.92
2023-05-06T03:44:46.888Z,20.48
2023-05-06T03:47:14.908Z,20.20
2023-05-06T03:49:44.790Z,19.98
2023-05-06T03:52:12.947Z,19.08
2023-05-06T03:54:44.435Z,20.15
2023-05-06T03:57:12.505Z,19.38
2023-05-06T03:59:40.484Z,20.33
2023-05-06T04:02:08.677Z,19.20
2023-05-06T04:04:36.822Z,20.27
2023-05-06T04:07:04.766Z,20.05
2023-05-06T04:09:33.403Z,19.30
2023-05-06T04:12:03.755Z,18.65
2023-05-06T04:14:34.534Z,20.23
2023-05-06T04:17:02.703Z,18.40
2023-05-06T04:19:32.119Z,16.65
2023-05-06T04:22:00.351Z,17.85
2023-05-06T04:24:29.622Z,18.98
2023-05-06T04:26:57.787Z,18.17
2023-05-06T04:29:27.397Z,20.58
2023-05-06T04:31:57.624Z,18.80
2023-05-06T04:34:28.910Z,17.25
2023-05-06T04:37:00.120Z,17.33
2023-05-06T04:39:32.180Z,16.30
2023-05-06T04:42:00.658Z,19.83
2023-05-06T04:44:30.826Z,16.70
2023-05-06T04:46:58.816Z,16.23
2023-05-06T04:49:28.831Z,17.80
2023-05-06T04:51:56.956Z,16.00
2023-05-06T04:54:25.148Z,18.70
2023-05-06T04:56:53.102Z,21.15
2023-05-06T04:59:21.050Z,17.77
2023-05-06T05:01:50.843Z,18.65
2023-05-06T05:04:19.096Z,17.08
2023-05-06T05:06:47.357Z,19.25
2023-05-06T05:09:15.358Z,18.83
2023-05-06T05:11:43.367Z,18.48
2023-05-06T05:14:11.467Z,20.92
2023-05-06T05:16:39.722Z,20.63
2023-05-06T05:19:09.652Z,20.73
2023-05-06T05:21:40.145Z,18.90
2023-05-06T05:24:08.398Z,17.70
2023-05-06T05:26:36.414Z,16.02
2023-05-06T05:29:04.546Z,17.00
2023-05-06T05:31:32.585Z,17.45
2023-05-06T05:34:03.214Z,16.38
2023-05-06T05:36:32.594Z,15.68
2023-05-06T05:39:00.866Z,18.92
2023-05-06T05:41:31.641Z,16.70
2023-05-06T05:43:59.644Z,16.25
2023-05-06T05:46:28.544Z,18.15
2023-05-06T05:48:56.499Z,16.58
2023-05-06T05:51:24.654Z,15.55
2023-05-06T05:53:53.943Z,18.92
2023-05-06T05:56:21.914Z,16.13
2023-05-06T05:58:49.970Z,17.42
2023-05-06T06:01:18.801Z,18.08
2023-05-06T06:03:46.956Z,16.58
2023-05-06T06:06:15.148Z,17.85
2023-05-06T06:08:43.310Z,18.42
2023-05-06T06:11:12.730Z,18.17
2023-05-06T06:13:41.071Z,17.23
2023-05-06T06:16:09.621Z,19.95
2023-05-06T06:18:37.925Z,17.33
2023-05-06T06:21:06.483Z,17.30
2023-05-06T06:23:35.541Z,16.42
2023-05-06T06:26:04.549Z,16.33
2023-05-06T06:28:34.018Z,16.65
2023-05-06T06:31:04.366Z,17.05
2023-05-06T06:33:32.369Z,15.02
2023-05-06T06:36:00.573Z,15.70
2023-05-06T06:38:31.237Z,16.00
2023-05-06T06:40:59.220Z,15.15
2023-05-06T06:43:27.233Z,15.48
2023-05-06T06:45:57.195Z,15.40
2023-05-06T06:48:25.286Z,16.33
2023-05-06T06:50:53.317Z,15.60
2023-05-06T06:53:21.568Z,16.38
2023-05-06T06:55:49.527Z,15.18
2023-05-06T06:58:17.546Z,16.23
2023-05-06T07:00:45.520Z,15.95
2023-05-06T07:03:16.021Z,16.40
2023-05-06T07:05:44.115Z,16.05
2023-05-06T07:08:12.083Z,15.20
2023-05-06T07:10:46.553Z,14.63
2023-05-06T07:13:15.084Z,17.88
2023-05-06T07:15:43.404Z,16.27
2023-05-06T07:18:11.585Z,15.18
2023-05-06T07:20:41.096Z,14.88
2023-05-06T07:23:09.108Z,15.38
2023-05-06T07:25:37.114Z,14.55
2023-05-06T07:28:05.993Z,15.35
2023-05-06T07:30:39.197Z,15.60
2023-05-06T07:33:07.732Z,14.02
2023-05-06T07:35:36.002Z,15.48
2023-05-06T07:38:05.433Z,16.35
2023-05-06T07:40:33.811Z,15.18
2023-05-06T07:43:03.653Z,14.98
2023-05-06T07:45:31.836Z,14.68
2023-05-06T07:48:00.119Z,13.98
2023-05-06T07:50:28.207Z,14.95
2023-05-06T07:53:00.067Z,31.52
2023-05-06T07:55:29.613Z,20.02
2023-05-06T07:58:06.766Z,15.50
2023-05-06T08:00:34.842Z,14.10
2023-05-06T08:03:02.967Z,14.30
2023-05-06T08:05:31.382Z,15.18
2023-05-06T08:07:59.516Z,14.43
2023-05-06T08:10:29.087Z,14.43
2023-05-06T08:12:57.123Z,14.48
2023-05-06T08:15:25.287Z,13.57
2023-05-06T08:17:53.301Z,14.07
2023-05-06T08:20:21.334Z,14.63
2023-05-06T08:22:52.886Z,13.88
2023-05-06T08:25:20.860Z,12.07
2023-05-06T08:27:50.441Z,13.13
2023-05-06T08:30:18.674Z,14.30
2023-05-06T08:32:46.792Z,14.13
2023-05-06T08:35:17.808Z,12.25
2023-05-06T08:37:45.924Z,15.05
2023-05-06T08:40:20.263Z,14.68
2023-05-06T08:42:51.244Z,13.38
2023-05-06T08:45:19.826Z,14.75
2023-05-06T08:47:48.226Z,15.48
2023-05-06T08:50:16.703Z,13.18
2023-05-06T08:52:45.094Z,12.85
2023-05-06T08:55:13.784Z,13.93
2023-05-06T08:57:43.625Z,13.32
2023-05-06T09:00:15.090Z,12.52
2023-05-06T09:02:44.279Z,13.35
2023-05-06T09:05:12.825Z,13.82
2023-05-06T09:07:43.137Z,13.80
2023-05-06T09:10:15.442Z,14.60
2023-05-06T09:12:43.771Z,12.77
2023-05-06T09:15:13.796Z,13.90
2023-05-06T09:17:42.120Z,13.25
2023-05-06T09:20:16.138Z,14.13
2023-05-06T09:22:44.415Z,13.88
2023-05-06T09:25:13.255Z,12.32
2023-05-06T09:27:41.861Z,13.07
2023-05-06T09:30:12.674Z,13.50
2023-05-06T09:32:42.661Z,11.07
2023-05-06T09:35:12.201Z,11.52
2023-05-06T09:37:41.063Z,11.88
2023-05-06T09:40:10.962Z,11.98
2023-05-06T09:42:41.389Z,11.23
2023-05-06T09:45:10.912Z,11.18
2023-05-06T09:47:44.713Z,12.70
2023-05-06T09:50:15.404Z,11.40
2023-05-06T09:52:46.462Z,11.57
2023-05-06T09:55:15.327Z,11.70
2023-05-06T09:57:43.841Z,11.93
2023-05-06T10:00:13.258Z,12.40
2023-05-06T10:02:44.034Z,11.00
2023-05-06T10:05:14.558Z,11.43
2023-05-06T10:07:42.939Z,10.20
2023-05-06T10:10:13.005Z,9.98
2023-05-06T10:12:41.245Z,11.10
2023-05-06T10:15:10.802Z,10.95
2023-05-06T10:17:41.769Z,10.45
2023-05-06T10:20:14.600Z,9.80
2023-05-06T10:22:53.523Z,9.80
2023-05-06T10:25:31.063Z,8.80
2023-05-06T10:27:59.979Z,10.60
2023-05-06T10:30:29.538Z,10.02
2023-05-06T10:33:00.623Z,9.68
2023-05-06T10:35:39.453Z,10.30
2023-05-06T10:38:10.626Z,8.68
2023-05-06T10:40:39.462Z,8.13
2023-05-06T10:43:28.887Z,7.28
2023-05-06T10:46:01.432Z,8.57
2023-05-06T10:48:29.900Z,8.27
2023-05-06T10:51:25.082Z,8.07
2023-05-06T10:53:57.794Z,8.15
2023-05-06T10:56:25.850Z,7.10
2023-05-06T10:58:55.497Z,8.00
2023-05-06T11:01:24.069Z,8.30
2023-05-06T11:03:55.005Z,7.78
2023-05-06T11:06:44.759Z,7.53
2023-05-06T11:09:20.473Z,6.80
2023-05-06T11:11:54.387Z,6.55
2023-05-06T11:14:30.045Z,7.90
2023-05-06T11:16:59.459Z,7.35
2023-05-06T11:19:29.994Z,7.63
2023-05-06T11:22:00.466Z,6.95
2023-05-06T11:24:29.626Z,7.22
2023-05-06T11:27:01.308Z,6.60
2023-05-06T11:29:29.508Z,7.22
2023-05-06T11:31:57.546Z,6.47
2023-05-06T11:34:27.936Z,6.40
2023-05-06T11:37:04.411Z,6.93
2023-05-06T11:39:39.807Z,6.53
2023-05-06T11:42:09.720Z,6.20
2023-05-06T11:44:39.925Z,5.78
2023-05-06T11:47:09.412Z,5.65
2023-05-06T11:49:39.480Z,8.07
2023-05-06T11:52:09.260Z,5.93
2023-05-06T11:54:39.909Z,5.75
2023-05-06T11:57:08.481Z,5.20
2023-05-06T11:59:38.307Z,5.55
2023-05-06T12:02:08.032Z,6.35
2023-05-06T12:04:41.323Z,4.93
2023-05-06T12:07:12.180Z,5.82
2023-05-06T12:09:43.557Z,5.93
2023-05-06T12:12:13.813Z,7.45
2023-05-06T12:14:42.803Z,8.95
2023-05-06T12:17:11.119Z,8.65
2023-05-06T12:19:40.498Z,8.73
2023-05-06T12:22:21.700Z,7.22
2023-05-06T12:24:50.535Z,7.18
2023-05-06T12:27:33.649Z,7.97
2023-05-06T12:30:04.150Z,6.85
2023-05-06T12:32:32.350Z,6.72
2023-05-06T12:35:05.537Z,7.57
2023-05-06T12:37:35.029Z,7.05
2023-05-06T12:40:03.576Z,6.47
2023-05-06T12:42:31.606Z,6.32
2023-05-06T12:44:59.624Z,6.82
2023-05-06T12:47:27.723Z,6.32
2023-05-06T12:49:58.184Z,6.70
2023-05-06T12:52:28.602Z,7.13
2023-05-06T12:55:01.631Z,6.88
2023-05-06T12:57:29.680Z,6.70
2023-05-06T12:59:59.006Z,6.70
2023-05-06T13:02:27.107Z,6.13
2023-05-06T13:04:56.674Z,6.88
2023-05-06T13:07:26.823Z,6.40
2023-05-06T13:09:54.811Z,6.63
2023-05-06T13:12:25.364Z,6.05
2023-05-06T13:14:53.434Z,6.03
2023-05-06T13:17:21.642Z,7.00
2023-05-06T13:19:49.674Z,6.50
2023-05-06T13:22:18.620Z,5.82
2023-05-06T13:24:47.017Z,6.28
2023-05-06T13:27:15.163Z,6.07
2023-05-06T13:29:44.977Z,6.63
2023-05-06T13:32:13.297Z,6.50
2023-05-06T13:34:41.505Z,5.50
2023-05-06T13:37:09.527Z,6.80
2023-05-06T13:39:38.015Z,7.40
2023-05-06T13:42:08.135Z,8.10
2023-05-06T13:44:38.652Z,6.72
2023-05-06T13:47:08.094Z,6.22
2023-05-06T13:49:36.046Z,6.63
2023-05-06T13:52:05.801Z,5.30
2023-05-06T13:54:45.018Z,5.75
2023-05-06T13:57:13.037Z,6.00
2023-05-06T13:59:41.040Z,7.32
2023-05-06T14:02:11.598Z,6.75
2023-05-06T14:04:39.780Z,7.10
2023-05-06T14:07:07.827Z,5.93
2023-05-06T14:09:35.792Z,5.95
2023-05-06T14:12:03.950Z,5.90
2023-05-06T14:14:32.072Z,5.68
2023-05-06T14:17:00.024Z,6.10
2023-05-06T14:19:34.396Z,7.03
2023-05-06T14:22:02.363Z,6.22
2023-05-06T14:24:30.411Z,6.45
2023-05-06T14:26:58.580Z,7.15
2023-05-06T14:29:26.619Z,7.10
2023-05-06T14:32:02.136Z,6.63
2023-05-06T14:34:41.293Z,6.18
2023-05-06T14:37:09.361Z,6.35
2023-05-06T14:39:41.660Z,6.60
2023-05-06T14:42:10.782Z,6.22
2023-05-06T14:44:39.200Z,6.65
2023-05-06T14:47:07.277Z,7.35
2023-05-06T14:49:37.226Z,6.50
2023-05-06T14:52:09.501Z,6.47
2023-05-06T14:54:42.207Z,6.28
2023-05-06T14:57:10.630Z,6.07
2023-05-06T14:59:39.170Z,5.70
2023-05-06T15:02:10.687Z,6.80
2023-05-06T15:04:40.088Z,6.85
2023-05-06T15:07:13.034Z,6.65
2023-05-06T15:09:43.901Z,6.00
2023-05-06T15:12:13.767Z,5.40
2023-05-06T15:14:41.860Z,6.15
2023-05-06T15:17:10.163Z,7.57
2023-05-06T15:19:48.450Z,8.88
2023-05-06T15:22:20.138Z,28.45
2023-05-06T15:24:48.264Z,6.28
2023-05-06T15:27:16.290Z,5.93
2023-05-06T15:29:44.295Z,6.10
2023-05-06T15:32:12.621Z,6.68
2023-05-06T15:34:41.543Z,6.57
2023-05-06T15:37:16.033Z,6.80
2023-05-06T15:39:43.966Z,6.30
2023-05-06T15:42:12.092Z,5.93
2023-05-06T15:44:40.232Z,5.75
2023-05-06T15:47:10.167Z,6.97
2023-05-06T15:52:10.660Z,5.75
2023-05-06T15:54:38.625Z,6.60
2023-05-06T15:57:07.044Z,6.15
2023-05-06T15:59:35.359Z,7.78
2023-05-06T16:04:36.737Z,5.50
2023-05-06T16:07:05.326Z,5.65
2023-05-06T16:09:39.967Z,4.97
2023-05-06T16:12:08.168Z,4.40
2023-05-06T16:14:37.146Z,4.95
2023-05-06T16:17:05.153Z,5.25
2023-05-06T16:19:35.008Z,6.00
2023-05-06T16:22:03.605Z,6.00
2023-05-06T16:24:31.801Z,6.13
2023-05-06T16:27:05.359Z,6.72
2023-05-06T16:29:33.704Z,7.85
2023-05-06T16:32:01.838Z,6.43
2023-05-06T16:34:29.882Z,6.93
2023-05-06T16:37:00.712Z,5.85
2023-05-06T16:39:29.282Z,6.38
2023-05-06T16:41:57.239Z,5.75
2023-05-06T16:44:29.534Z,5.55
2023-05-06T16:46:57.527Z,6.05
2023-05-06T16:49:32.053Z,6.93
2023-05-06T16:52:01.438Z,5.55
2023-05-06T16:54:29.488Z,5.90
2023-05-06T16:56:57.645Z,6.75
2023-05-06T16:59:27.093Z,6.20
2023-05-06T17:01:59.134Z,7.47
2023-05-06T17:04:27.148Z,7.32
2023-05-06T17:06:59.811Z,7.28
2023-05-06T17:09:28.158Z,7.88
2023-05-06T17:11:56.402Z,8.10
2023-05-06T17:14:24.382Z,8.63
2023-05-06T17:16:53.838Z,9.48
2023-05-06T17:19:23.621Z,9.20
2023-05-06T17:21:51.735Z,8.50
2023-05-06T17:24:19.798Z,8.57
2023-05-06T17:26:48.163Z,7.70
2023-05-06T17:29:16.155Z,8.20
2023-05-06T17:31:44.294Z,8.15
2023-05-06T17:34:13.592Z,7.13
2023-05-06T17:36:41.550Z,8.23
2023-05-06T17:39:09.599Z,8.52
2023-05-06T17:41:37.632Z,8.13
2023-05-06T17:44:06.891Z,8.77
2023-05-06T17:46:34.895Z,8.32
2023-05-06T17:49:02.975Z,8.85
2023-05-06T17:51:32.704Z,8.60
2023-05-06T17:54:00.721Z,9.00
2023-05-06T17:56:28.755Z,8.57
2023-05-06T17:59:01.302Z,8.07
2023-05-06T18:01:29.656Z,8.30
2023-05-06T18:03:58.548Z,8.82
2023-05-06T18:06:27.081Z,8.20
2023-05-06T18:08:56.511Z,8.48
2023-05-06T18:11:27.895Z,7.82
2023-05-06T18:13:56.186Z,7.85
2023-05-06T18:16:30.226Z,8.15
2023-05-06T18:19:00.858Z,9.23
2023-05-06T18:21:31.751Z,8.23
2023-05-06T18:24:10.355Z,10.20
2023-05-06T18:26:45.794Z,9.32
2023-05-06T18:29:14.422Z,9.38
2023-05-06T18:31:43.207Z,8.52
2023-05-06T18:34:17.199Z,8.07
2023-05-06T18:36:45.240Z,8.15
2023-05-06T18:39:15.070Z,9.05
2023-05-06T18:41:44.392Z,8.18
2023-05-06T18:44:12.601Z,9.40
2023-05-06T18:46:41.473Z,9.48
2023-05-06T18:49:09.517Z,9.00
2023-05-06T18:51:38.921Z,9.95
2023-05-06T18:54:08.198Z,11.23
2023-05-06T18:56:38.037Z,9.70
2023-05-06T18:59:06.525Z,11.40
2023-05-06T19:01:34.760Z,10.50
2023-05-06T19:04:02.843Z,10.98
2023-05-06T19:06:32.435Z,11.07
2023-05-06T19:09:01.174Z,10.20
2023-05-06T19:11:29.300Z,11.25
2023-05-06T19:13:58.697Z,10.38
2023-05-06T19:16:27.090Z,11.18
2023-05-06T19:18:55.181Z,11.88
2023-05-06T19:21:23.229Z,11.00
2023-05-06T19:23:54.439Z,10.77
2023-05-06T19:26:22.478Z,10.45
2023-05-06T19:28:50.554Z,10.07
2023-05-06T19:31:19.899Z,9.43
2023-05-06T19:33:48.318Z,10.07
2023-05-06T19:36:17.044Z,11.50
2023-05-06T19:38:45.037Z,10.63
2023-05-06T19:41:13.320Z,10.43
2023-05-06T19:43:44.648Z,9.55
2023-05-06T19:46:13.118Z,10.85
2023-05-06T19:48:46.492Z,9.27
2023-05-06T19:51:14.837Z,10.50
2023-05-06T19:53:49.298Z,9.63
2023-05-06T19:56:18.754Z,10.15
2023-05-06T19:58:50.926Z,9.50
2023-05-06T20:01:22.485Z,9.40
2023-05-06T20:03:52.775Z,9.48
2023-05-06T20:06:20.942Z,10.10
2023-05-06T20:08:50.626Z,9.00
2023-05-06T20:11:18.712Z,8.73
2023-05-06T20:13:46.770Z,8.15
2023-05-06T20:16:15.906Z,8.90
2023-05-06T20:18:44.235Z,8.10
2023-05-06T20:21:16.715Z,8.38
2023-05-06T20:23:44.785Z,9.52
2023-05-06T20:26:12.773Z,9.00
2023-05-06T20:28:40.775Z,9.07
2023-05-06T20:31:09.177Z,8.65
2023-05-06T20:33:37.334Z,9.20
2023-05-06T20:36:06.311Z,8.80
2023-05-06T20:38:35.765Z,8.68
2023-05-06T20:41:05.345Z,8.70
2023-05-06T20:43:35.103Z,8.73
2023-05-06T20:46:05.709Z,7.63
2023-05-06T20:48:34.261Z,8.52
2023-05-06T20:51:02.371Z,8.95
2023-05-06T20:53:32.578Z,9.18
2023-05-06T20:56:03.135Z,9.25
2023-05-06T20:58:31.296Z,8.60
2023-05-06T21:00:59.532Z,9.57
2023-05-06T21:03:28.968Z,9.35
2023-05-06T21:05:57.417Z,9.57
2023-05-06T21:08:25.626Z,8.35
2023-05-06T21:10:53.660Z,9.80
2023-05-06T21:13:23.144Z,9.80
2023-05-06T21:15:51.568Z,9.23
2023-05-06T21:18:19.919Z,9.98
2023-05-06T21:20:48.582Z,8.73
2023-05-06T21:23:18.954Z,8.55
2023-05-06T21:25:47.411Z,8.80
2023-05-06T21:28:15.387Z,8.93
2023-05-06T21:30:46.288Z,7.75
2023-05-06T21:33:14.364Z,8.38
2023-05-06T21:35:42.889Z,8.88
2023-05-06T21:38:11.174Z,9.25
2023-05-06T21:40:40.092Z,9.13
2023-05-06T21:43:08.058Z,9.45
2023-05-06T21:45:37.295Z,9.77
2023-05-06T21:48:07.520Z,10.52
2023-05-06T21:50:37.729Z,8.98
2023-05-06T21:53:05.951Z,9.90
2023-05-06T21:55:36.732Z,10.88
2023-05-06T21:58:04.861Z,9.32
2023-05-06T22:00:35.538Z,9.70
2023-05-06T22:03:03.897Z,9.45
2023-05-06T22:05:33.346Z,9.40
2023-05-06T22:08:01.441Z,9.95
2023-05-06T22:10:29.487Z,9.70
2023-05-06T22:12:59.521Z,10.30
2023-05-06T22:15:27.661Z,10.35
2023-05-06T22:17:55.799Z,10.10
2023-05-06T22:20:24.327Z,10.93
2023-05-06T22:22:54.095Z,10.75
2023-05-06T22:25:24.025Z,11.23
2023-05-06T22:27:52.344Z,11.18
2023-05-06T22:30:20.458Z,10.02
2023-05-06T22:32:48.561Z,10.70
2023-05-06T22:35:16.941Z,10.82
2023-05-06T22:37:46.154Z,10.80
2023-05-06T22:40:15.649Z,11.77
2023-05-06T22:42:43.713Z,11.15
2023-05-06T22:45:12.565Z,10.75
2023-05-06T22:47:40.907Z,10.30
2023-05-06T22:50:09.855Z,10.68
2023-05-06T22:52:38.029Z,10.63
2023-05-06T22:55:07.112Z,10.32
2023-05-06T22:57:43.393Z,11.00
2023-05-06T23:00:13.695Z,12.02
2023-05-06T23:02:41.837Z,11.90
2023-05-06T23:05:10.594Z,11.52
2023-05-06T23:07:43.727Z,11.90
2023-05-06T23:10:12.202Z,11.15
2023-05-06T23:12:45.440Z,10.35
2023-05-06T23:15:13.590Z,11.50
2023-05-06T23:17:41.696Z,11.63
2023-05-06T23:25:49.451Z,11.98
2023-05-06T23:28:18.889Z,12.35
2023-05-06T23:30:47.816Z,12.18
2023-05-06T23:33:16.073Z,12.02
2023-05-06T23:35:44.366Z,12.27
2023-05-06T23:38:16.685Z,12.48
2023-05-06T23:40:44.677Z,12.02
2023-05-06T23:43:12.827Z,11.88
2023-05-06T23:45:42.175Z,11.23
2023-05-06T23:48:10.331Z,12.50
2023-05-06T23:50:40.199Z,11.95
2023-05-06T23:53:08.216Z,12.52
2023-05-06T23:55:36.557Z,12.50
2023-05-06T23:58:04.681Z,12.90
